sensor_id;sensor_type;location;lat;lon;timestamp;temperature;humidity
23719;DHT22;43322;52.230;5.702;2022-11-20T00:01:12;-2.80;99.90
23719;DHT22;43322;52.230;5.702;2022-11-20T00:03:39;-2.60;99.90
23719;DHT22;43322;52.230;5.702;2022-11-20T00:06:09;-2.60;99.90
23719;DHT22;43322;52.230;5.702;2022-11-20T00:08:36;-2.60;99.90
23719;DHT22;43322;52.230;5.702;2022-11-20T00:11:04;-2.70;99.90
23719;DHT22;43322;52.230;5.702;2022-11-20T00:13:32;-2.70;99.90
23719;DHT22;43322;52.230;5.702;2022-11-20T00:15:59;-2.70;99.90
23719;DHT22;43322;52.230;5.702;2022-11-20T00:18:29;-2.70;99.90
23719;DHT22;43322;52.230;5.702;2022-11-20T00:21:00;-2.70;99.90
23719;DHT22;43322;52.230;5.702;2022-11-20T00:23:28;-2.80;99.90
23719;DHT22;43322;52.230;5.702;2022-11-20T00:25:55;-2.90;99.90
23719;DHT22;43322;52.230;5.702;2022-11-20T00:28:22;-2.90;99.90
23719;DHT22;43322;52.230;5.702;2022-11-20T00:30:49;-2.90;99.90
23719;DHT22;43322;52.230;5.702;2022-11-20T00:33:16;-2.80;99.90
23719;DHT22;43322;52.230;5.702;2022-11-20T00:35:44;-2.80;99.90
23719;DHT22;43322;52.230;5.702;2022-11-20T00:38:11;-2.50;99.90
23719;DHT22;43322;52.230;5.702;2022-11-20T00:40:38;-2.70;99.90
23719;DHT22;43322;52.230;5.702;2022-11-20T00:43:06;-2.70;99.90
23719;DHT22;43322;52.230;5.702;2022-11-20T00:45:33;-2.70;99.90
23719;DHT22;43322;52.230;5.702;2022-11-20T00:48:00;-2.80;99.90
23719;DHT22;43322;52.230;5.702;2022-11-20T00:50:27;-2.80;99.90
23719;DHT22;43322;52.230;5.702;2022-11-20T00:52:55;-2.80;99.90
23719;DHT22;43322;52.230;5.702;2022-11-20T00:55:22;-3.00;99.90
23719;DHT22;43322;52.230;5.702;2022-11-20T00:57:49;-3.10;99.90
23719;DHT22;43322;52.230;5.702;2022-11-20T01:00:17;-3.00;99.90
23719;DHT22;43322;52.230;5.702;2022-11-20T01:02:44;-3.00;99.90
23719;DHT22;43322;52.230;5.702;2022-11-20T01:05:11;-3.10;99.90
23719;DHT22;43322;52.230;5.702;2022-11-20T01:07:38;-3.20;99.90
23719;DHT22;43322;52.230;5.702;2022-11-20T01:10:07;-3.20;99.90
23719;DHT22;43322;52.230;5.702;2022-11-20T01:12:34;-3.30;99.90
23719;DHT22;43322;52.230;5.702;2022-11-20T01:15:01;-3.40;99.90
23719;DHT22;43322;52.230;5.702;2022-11-20T01:17:28;-3.40;99.90
23719;DHT22;43322;52.230;5.702;2022-11-20T01:19:57;-3.30;99.90
23719;DHT22;43322;52.230;5.702;2022-11-20T01:22:24;-3.20;99.90
23719;DHT22;43322;52.230;5.702;2022-11-20T01:24:51;-3.20;99.90
23719;DHT22;43322;52.230;5.702;2022-11-20T01:27:20;-3.20;99.90
23719;DHT22;43322;52.230;5.702;2022-11-20T01:29:47;-3.20;99.90
23719;DHT22;43322;52.230;5.702;2022-11-20T01:32:14;-3.20;99.90
23719;DHT22;43322;52.230;5.702;2022-11-20T01:34:41;-3.20;99.90
23719;DHT22;43322;52.230;5.702;2022-11-20T01:37:08;-3.20;99.90
23719;DHT22;43322;52.230;5.702;2022-11-20T01:39:35;-3.20;99.90
23719;DHT22;43322;52.230;5.702;2022-11-20T01:42:02;-3.30;99.90
23719;DHT22;43322;52.230;5.702;2022-11-20T01:44:51;-3.40;99.90
23719;DHT22;43322;52.230;5.702;2022-11-20T01:47:26;-3.40;99.90
23719;DHT22;43322;52.230;5.702;2022-11-20T01:49:59;-3.60;99.90
23719;DHT22;43322;52.230;5.702;2022-11-20T01:52:30;-3.50;99.90
23719;DHT22;43322;52.230;5.702;2022-11-20T01:55:03;-3.50;99.90
23719;DHT22;43322;52.230;5.702;2022-11-20T01:57:33;-3.40;99.90
23719;DHT22;43322;52.230;5.702;2022-11-20T02:00:05;-3.40;99.90
23719;DHT22;43322;52.230;5.702;2022-11-20T02:02:34;-3.40;99.90
23719;DHT22;43322;52.230;5.702;2022-11-20T02:05:09;-3.40;99.90
23719;DHT22;43322;52.230;5.702;2022-11-20T02:07:39;-3.50;99.90
23719;DHT22;43322;52.230;5.702;2022-11-20T02:10:06;-3.50;99.90
23719;DHT22;43322;52.230;5.702;2022-11-20T02:12:34;-3.50;99.90
23719;DHT22;43322;52.230;5.702;2022-11-20T02:15:19;-3.40;99.90
23719;DHT22;43322;52.230;5.702;2022-11-20T02:17:47;-3.20;99.90
23719;DHT22;43322;52.230;5.702;2022-11-20T02:20:14;-3.20;99.90
23719;DHT22;43322;52.230;5.702;2022-11-20T02:22:47;-3.20;99.90
23719;DHT22;43322;52.230;5.702;2022-11-20T02:25:17;-3.20;99.90
23719;DHT22;43322;52.230;5.702;2022-11-20T02:27:45;-3.20;99.90
23719;DHT22;43322;52.230;5.702;2022-11-20T02:30:12;-3.30;99.90
23719;DHT22;43322;52.230;5.702;2022-11-20T02:32:39;-3.40;99.90
23719;DHT22;43322;52.230;5.702;2022-11-20T02:35:08;-3.40;99.90
23719;DHT22;43322;52.230;5.702;2022-11-20T02:37:38;-3.30;99.90
23719;DHT22;43322;52.230;5.702;2022-11-20T02:40:07;-3.40;99.90
23719;DHT22;43322;52.230;5.702;2022-11-20T02:42:36;-3.50;99.90
23719;DHT22;43322;52.230;5.702;2022-11-20T02:45:04;-3.50;99.90
23719;DHT22;43322;52.230;5.702;2022-11-20T02:47:32;-3.50;99.90
23719;DHT22;43322;52.230;5.702;2022-11-20T02:49:59;-2.70;99.90
23719;DHT22;43322;52.230;5.702;2022-11-20T02:52:27;-3.60;99.90
23719;DHT22;43322;52.230;5.702;2022-11-20T02:54:54;-3.80;99.90
23719;DHT22;43322;52.230;5.702;2022-11-20T02:57:21;-3.90;99.90
23719;DHT22;43322;52.230;5.702;2022-11-20T02:59:50;-3.80;99.90
23719;DHT22;43322;52.230;5.702;2022-11-20T03:02:17;-3.70;99.90
23719;DHT22;43322;52.230;5.702;2022-11-20T03:04:44;-3.70;99.90
23719;DHT22;43322;52.230;5.702;2022-11-20T03:07:11;-3.70;99.90
23719;DHT22;43322;52.230;5.702;2022-11-20T03:09:38;-3.80;99.90
23719;DHT22;43322;52.230;5.702;2022-11-20T03:12:06;-3.90;99.90
23719;DHT22;43322;52.230;5.702;2022-11-20T03:14:34;-3.80;99.90
23719;DHT22;43322;52.230;5.702;2022-11-20T03:17:02;-3.70;99.90
23719;DHT22;43322;52.230;5.702;2022-11-20T03:19:29;-3.70;99.90
23719;DHT22;43322;52.230;5.702;2022-11-20T03:21:56;-3.70;99.90
23719;DHT22;43322;52.230;5.702;2022-11-20T03:24:23;-3.70;99.90
23719;DHT22;43322;52.230;5.702;2022-11-20T03:26:50;-3.60;99.90
23719;DHT22;43322;52.230;5.702;2022-11-20T03:29:17;-3.70;99.90
23719;DHT22;43322;52.230;5.702;2022-11-20T03:31:45;-3.80;99.90
23719;DHT22;43322;52.230;5.702;2022-11-20T03:34:13;-3.80;99.90
23719;DHT22;43322;52.230;5.702;2022-11-20T03:36:41;-3.80;99.90
23719;DHT22;43322;52.230;5.702;2022-11-20T03:39:09;-2.90;99.90
23719;DHT22;43322;52.230;5.702;2022-11-20T03:41:38;-3.70;99.90
23719;DHT22;43322;52.230;5.702;2022-11-20T03:44:06;-3.70;99.90
23719;DHT22;43322;52.230;5.702;2022-11-20T03:46:34;-3.60;99.90
23719;DHT22;43322;52.230;5.702;2022-11-20T03:49:01;-3.80;99.90
23719;DHT22;43322;52.230;5.702;2022-11-20T03:51:31;-3.80;99.90
23719;DHT22;43322;52.230;5.702;2022-11-20T03:53:59;-3.80;99.90
23719;DHT22;43322;52.230;5.702;2022-11-20T03:56:29;-3.80;99.90
23719;DHT22;43322;52.230;5.702;2022-11-20T03:58:56;-3.90;99.90
23719;DHT22;43322;52.230;5.702;2022-11-20T04:01:25;-3.90;99.90
23719;DHT22;43322;52.230;5.702;2022-11-20T04:03:54;-3.90;99.90
23719;DHT22;43322;52.230;5.702;2022-11-20T04:06:23;-3.80;99.90
23719;DHT22;43322;52.230;5.702;2022-11-20T04:08:53;-3.80;99.90
23719;DHT22;43322;52.230;5.702;2022-11-20T04:11:21;-3.70;99.90
23719;DHT22;43322;52.230;5.702;2022-11-20T04:13:51;-3.70;99.90
23719;DHT22;43322;52.230;5.702;2022-11-20T04:16:19;-3.80;99.90
23719;DHT22;43322;52.230;5.702;2022-11-20T04:18:46;-3.90;99.90
23719;DHT22;43322;52.230;5.702;2022-11-20T04:21:13;-3.80;99.90
23719;DHT22;43322;52.230;5.702;2022-11-20T04:23:40;-3.90;99.90
23719;DHT22;43322;52.230;5.702;2022-11-20T04:26:11;-3.90;99.90
23719;DHT22;43322;52.230;5.702;2022-11-20T04:28:39;-3.90;99.90
23719;DHT22;43322;52.230;5.702;2022-11-20T04:31:08;-4.00;99.90
23719;DHT22;43322;52.230;5.702;2022-11-20T04:33:37;-4.00;99.90
23719;DHT22;43322;52.230;5.702;2022-11-20T04:36:06;-4.00;99.90
23719;DHT22;43322;52.230;5.702;2022-11-20T04:38:34;-3.90;99.90
23719;DHT22;43322;52.230;5.702;2022-11-20T04:41:03;-3.90;99.90
23719;DHT22;43322;52.230;5.702;2022-11-20T04:43:32;-3.80;99.90
23719;DHT22;43322;52.230;5.702;2022-11-20T04:46:00;-3.90;99.90
23719;DHT22;43322;52.230;5.702;2022-11-20T04:48:28;-3.90;99.90
23719;DHT22;43322;52.230;5.702;2022-11-20T04:50:56;-3.90;99.90
23719;DHT22;43322;52.230;5.702;2022-11-20T04:53:23;-4.00;99.90
23719;DHT22;43322;52.230;5.702;2022-11-20T04:55:50;-4.00;99.90
23719;DHT22;43322;52.230;5.702;2022-11-20T04:58:18;-4.00;99.90
23719;DHT22;43322;52.230;5.702;2022-11-20T05:00:46;-4.00;99.90
23719;DHT22;43322;52.230;5.702;2022-11-20T05:03:13;-4.00;99.90
23719;DHT22;43322;52.230;5.702;2022-11-20T05:05:40;-4.10;99.90
23719;DHT22;43322;52.230;5.702;2022-11-20T05:08:07;-4.10;99.90
23719;DHT22;43322;52.230;5.702;2022-11-20T05:10:34;-4.20;99.90
23719;DHT22;43322;52.230;5.702;2022-11-20T05:13:01;-4.20;99.90
23719;DHT22;43322;52.230;5.702;2022-11-20T05:15:28;-3.30;99.90
23719;DHT22;43322;52.230;5.702;2022-11-20T05:17:56;-4.20;99.90
23719;DHT22;43322;52.230;5.702;2022-11-20T05:20:23;-4.20;99.90
23719;DHT22;43322;52.230;5.702;2022-11-20T05:22:50;-4.10;99.90
23719;DHT22;43322;52.230;5.702;2022-11-20T05:25:17;-4.30;99.90
23719;DHT22;43322;52.230;5.702;2022-11-20T05:27:44;-4.20;99.90
23719;DHT22;43322;52.230;5.702;2022-11-20T05:30:13;-4.20;99.90
23719;DHT22;43322;52.230;5.702;2022-11-20T05:32:40;-4.30;99.90
23719;DHT22;43322;52.230;5.702;2022-11-20T05:35:08;-4.30;99.90
23719;DHT22;43322;52.230;5.702;2022-11-20T05:37:35;-4.20;99.90
23719;DHT22;43322;52.230;5.702;2022-11-20T05:40:03;-4.10;99.90
23719;DHT22;43322;52.230;5.702;2022-11-20T05:42:30;-4.20;99.90
23719;DHT22;43322;52.230;5.702;2022-11-20T05:44:57;-4.30;99.90
23719;DHT22;43322;52.230;5.702;2022-11-20T05:47:25;-4.40;99.90
23719;DHT22;43322;52.230;5.702;2022-11-20T05:49:52;-4.50;99.90
23719;DHT22;43322;52.230;5.702;2022-11-20T05:52:20;-4.40;99.90
23719;DHT22;43322;52.230;5.702;2022-11-20T05:54:47;-4.40;99.90
23719;DHT22;43322;52.230;5.702;2022-11-20T05:57:14;-4.30;99.90
23719;DHT22;43322;52.230;5.702;2022-11-20T05:59:41;-4.20;99.90
23719;DHT22;43322;52.230;5.702;2022-11-20T06:02:08;-4.20;99.90
23719;DHT22;43322;52.230;5.702;2022-11-20T06:04:35;-3.90;99.90
23719;DHT22;43322;52.230;5.702;2022-11-20T06:07:04;-4.30;99.90
23719;DHT22;43322;52.230;5.702;2022-11-20T06:09:33;-4.40;99.90
23719;DHT22;43322;52.230;5.702;2022-11-20T06:12:00;-4.40;99.90
23719;DHT22;43322;52.230;5.702;2022-11-20T06:14:27;-3.60;99.90
23719;DHT22;43322;52.230;5.702;2022-11-20T06:16:54;-4.40;99.90
23719;DHT22;43322;52.230;5.702;2022-11-20T06:19:21;-4.30;99.90
23719;DHT22;43322;52.230;5.702;2022-11-20T06:21:48;-4.30;99.90
23719;DHT22;43322;52.230;5.702;2022-11-20T06:24:16;-4.30;99.90
23719;DHT22;43322;52.230;5.702;2022-11-20T06:26:45;-4.30;99.90
23719;DHT22;43322;52.230;5.702;2022-11-20T06:29:12;-4.30;99.90
23719;DHT22;43322;52.230;5.702;2022-11-20T06:31:39;-4.40;99.90
23719;DHT22;43322;52.230;5.702;2022-11-20T06:34:07;-4.40;99.90
23719;DHT22;43322;52.230;5.702;2022-11-20T06:36:35;-4.40;99.90
23719;DHT22;43322;52.230;5.702;2022-11-20T06:39:02;-4.40;99.90
23719;DHT22;43322;52.230;5.702;2022-11-20T06:41:29;-4.40;99.90
23719;DHT22;43322;52.230;5.702;2022-11-20T06:43:58;-4.50;99.90
23719;DHT22;43322;52.230;5.702;2022-11-20T06:46:25;-4.50;99.90
23719;DHT22;43322;52.230;5.702;2022-11-20T06:48:52;-4.50;99.90
23719;DHT22;43322;52.230;5.702;2022-11-20T06:51:20;-4.50;99.90
23719;DHT22;43322;52.230;5.702;2022-11-20T06:53:48;-4.50;99.90
23719;DHT22;43322;52.230;5.702;2022-11-20T06:56:15;-4.60;99.90
23719;DHT22;43322;52.230;5.702;2022-11-20T06:58:41;-4.70;99.90
23719;DHT22;43322;52.230;5.702;2022-11-20T07:01:12;-4.70;99.90
23719;DHT22;43322;52.230;5.702;2022-11-20T07:03:39;-4.70;99.90
23719;DHT22;43322;52.230;5.702;2022-11-20T07:06:06;-4.70;99.90
23719;DHT22;43322;52.230;5.702;2022-11-20T07:08:34;-4.60;99.90
23719;DHT22;43322;52.230;5.702;2022-11-20T07:11:02;-4.60;99.90
23719;DHT22;43322;52.230;5.702;2022-11-20T07:13:30;-4.60;99.90
23719;DHT22;43322;52.230;5.702;2022-11-20T07:15:59;-4.60;99.90
23719;DHT22;43322;52.230;5.702;2022-11-20T07:18:27;-4.60;99.90
23719;DHT22;43322;52.230;5.702;2022-11-20T07:20:54;-4.60;99.90
23719;DHT22;43322;52.230;5.702;2022-11-20T07:23:21;-4.60;99.90
23719;DHT22;43322;52.230;5.702;2022-11-20T07:25:48;-4.60;99.90
23719;DHT22;43322;52.230;5.702;2022-11-20T07:28:15;-4.60;99.90
23719;DHT22;43322;52.230;5.702;2022-11-20T07:30:41;-4.50;99.90
23719;DHT22;43322;52.230;5.702;2022-11-20T07:33:08;-4.50;99.90
23719;DHT22;43322;52.230;5.702;2022-11-20T07:35:36;-4.40;99.90
23719;DHT22;43322;52.230;5.702;2022-11-20T07:38:03;-4.30;99.90
23719;DHT22;43322;52.230;5.702;2022-11-20T07:40:30;-4.30;99.90
23719;DHT22;43322;52.230;5.702;2022-11-20T07:42:57;-4.20;99.90
23719;DHT22;43322;52.230;5.702;2022-11-20T07:45:24;-4.20;99.90
23719;DHT22;43322;52.230;5.702;2022-11-20T07:47:51;-4.20;99.90
23719;DHT22;43322;52.230;5.702;2022-11-20T07:50:18;-4.20;99.90
23719;DHT22;43322;52.230;5.702;2022-11-20T07:52:47;-4.10;99.90
23719;DHT22;43322;52.230;5.702;2022-11-20T07:55:14;-4.10;99.90
23719;DHT22;43322;52.230;5.702;2022-11-20T07:57:41;-4.00;99.90
23719;DHT22;43322;52.230;5.702;2022-11-20T08:00:10;-4.00;99.90
23719;DHT22;43322;52.230;5.702;2022-11-20T08:02:37;-3.90;99.90
23719;DHT22;43322;52.230;5.702;2022-11-20T08:05:05;-3.90;99.90
23719;DHT22;43322;52.230;5.702;2022-11-20T08:07:35;-3.80;99.90
23719;DHT22;43322;52.230;5.702;2022-11-20T08:10:04;-3.70;99.90
23719;DHT22;43322;52.230;5.702;2022-11-20T08:12:31;-3.60;99.90
23719;DHT22;43322;52.230;5.702;2022-11-20T08:15:15;-3.60;99.90
23719;DHT22;43322;52.230;5.702;2022-11-20T08:17:42;-3.50;99.90
23719;DHT22;43322;52.230;5.702;2022-11-20T08:20:09;-3.40;99.90
23719;DHT22;43322;52.230;5.702;2022-11-20T08:22:36;-3.40;99.90
23719;DHT22;43322;52.230;5.702;2022-11-20T08:25:05;-3.30;99.90
23719;DHT22;43322;52.230;5.702;2022-11-20T08:27:32;-3.30;99.90
23719;DHT22;43322;52.230;5.702;2022-11-20T08:29:58;-3.20;99.90
23719;DHT22;43322;52.230;5.702;2022-11-20T08:32:25;-3.10;99.90
23719;DHT22;43322;52.230;5.702;2022-11-20T08:34:52;-3.00;99.90
23719;DHT22;43322;52.230;5.702;2022-11-20T08:37:19;-3.00;99.90
23719;DHT22;43322;52.230;5.702;2022-11-20T08:39:46;-2.90;99.90
23719;DHT22;43322;52.230;5.702;2022-11-20T08:42:14;-3.20;99.90
23719;DHT22;43322;52.230;5.702;2022-11-20T08:44:41;-2.70;99.90
23719;DHT22;43322;52.230;5.702;2022-11-20T08:47:08;-2.60;99.90
23719;DHT22;43322;52.230;5.702;2022-11-20T08:49:35;-2.50;99.90
23719;DHT22;43322;52.230;5.702;2022-11-20T08:52:02;-2.40;99.90
23719;DHT22;43322;52.230;5.702;2022-11-20T08:54:29;-2.40;99.90
23719;DHT22;43322;52.230;5.702;2022-11-20T08:56:55;-2.30;99.90
23719;DHT22;43322;52.230;5.702;2022-11-20T08:59:23;-2.20;99.90
23719;DHT22;43322;52.230;5.702;2022-11-20T09:01:50;-2.10;99.90
23719;DHT22;43322;52.230;5.702;2022-11-20T09:04:17;-2.00;99.90
23719;DHT22;43322;52.230;5.702;2022-11-20T09:06:44;-2.00;99.90
23719;DHT22;43322;52.230;5.702;2022-11-20T09:09:10;-2.00;99.90
23719;DHT22;43322;52.230;5.702;2022-11-20T09:11:37;-2.00;99.90
23719;DHT22;43322;52.230;5.702;2022-11-20T09:14:04;-1.80;99.90
23719;DHT22;43322;52.230;5.702;2022-11-20T09:16:32;-1.80;99.90
23719;DHT22;43322;52.230;5.702;2022-11-20T09:18:59;-1.80;99.90
23719;DHT22;43322;52.230;5.702;2022-11-20T09:21:26;-1.70;99.90
23719;DHT22;43322;52.230;5.702;2022-11-20T09:23:53;-1.70;99.90
23719;DHT22;43322;52.230;5.702;2022-11-20T09:26:20;-1.60;99.90
23719;DHT22;43322;52.230;5.702;2022-11-20T09:28:46;-1.50;99.90
23719;DHT22;43322;52.230;5.702;2022-11-20T09:31:19;-1.50;99.90
23719;DHT22;43322;52.230;5.702;2022-11-20T09:33:49;-1.40;99.90
23719;DHT22;43322;52.230;5.702;2022-11-20T09:36:15;-1.40;99.90
23719;DHT22;43322;52.230;5.702;2022-11-20T09:38:44;-1.30;99.90
23719;DHT22;43322;52.230;5.702;2022-11-20T09:44:35;-1.50;99.90
23719;DHT22;43322;52.230;5.702;2022-11-20T09:47:09;-1.50;99.90
23719;DHT22;43322;52.230;5.702;2022-11-20T09:49:55;-1.40;99.90
23719;DHT22;43322;52.230;5.702;2022-11-20T09:52:32;-1.40;99.90
23719;DHT22;43322;52.230;5.702;2022-11-20T09:55:04;-1.30;99.90
23719;DHT22;43322;52.230;5.702;2022-11-20T09:57:37;-1.20;99.90
23719;DHT22;43322;52.230;5.702;2022-11-20T10:00:09;-1.20;99.90
23719;DHT22;43322;52.230;5.702;2022-11-20T10:02:41;-1.10;99.90
23719;DHT22;43322;52.230;5.702;2022-11-20T10:05:17;-1.00;99.90
23719;DHT22;43322;52.230;5.702;2022-11-20T10:07:51;-1.00;99.90
23719;DHT22;43322;52.230;5.702;2022-11-20T10:10:28;-1.00;99.90
23719;DHT22;43322;52.230;5.702;2022-11-20T10:13:07;-0.90;99.90
23719;DHT22;43322;52.230;5.702;2022-11-20T10:15:43;-0.90;99.90
23719;DHT22;43322;52.230;5.702;2022-11-20T10:18:23;-0.80;99.90
23719;DHT22;43322;52.230;5.702;2022-11-20T10:21:00;-0.80;99.90
23719;DHT22;43322;52.230;5.702;2022-11-20T10:26:22;-0.50;99.90
23719;DHT22;43322;52.230;5.702;2022-11-20T10:29:02;-0.60;99.90
23719;DHT22;43322;52.230;5.702;2022-11-20T10:31:34;-0.40;99.90
23719;DHT22;43322;52.230;5.702;2022-11-20T10:34:06;-0.30;99.90
23719;DHT22;43322;52.230;5.702;2022-11-20T10:36:40;-0.20;99.90
23719;DHT22;43322;52.230;5.702;2022-11-20T10:39:16;-0.20;99.90
23719;DHT22;43322;52.230;5.702;2022-11-20T10:41:46;-0.10;99.90
23719;DHT22;43322;52.230;5.702;2022-11-20T10:44:17;0.00;99.90
23719;DHT22;43322;52.230;5.702;2022-11-20T10:47:13;0.30;99.90
23719;DHT22;43322;52.230;5.702;2022-11-20T10:49:41;0.40;99.90
23719;DHT22;43322;52.230;5.702;2022-11-20T10:52:16;0.50;99.90
23719;DHT22;43322;52.230;5.702;2022-11-20T10:54:50;0.60;99.90
23719;DHT22;43322;52.230;5.702;2022-11-20T10:57:38;0.70;99.90
23719;DHT22;43322;52.230;5.702;2022-11-20T11:00:12;0.60;99.90
23719;DHT22;43322;52.230;5.702;2022-11-20T11:02:45;0.80;99.90
23719;DHT22;43322;52.230;5.702;2022-11-20T11:05:29;0.90;99.90
23719;DHT22;43322;52.230;5.702;2022-11-20T11:08:00;1.00;99.90
23719;DHT22;43322;52.230;5.702;2022-11-20T11:10:32;1.30;99.90
23719;DHT22;43322;52.230;5.702;2022-11-20T11:12:59;1.30;99.90
23719;DHT22;43322;52.230;5.702;2022-11-20T11:15:28;1.40;99.90
23719;DHT22;43322;52.230;5.702;2022-11-20T11:17:56;1.20;99.90
23719;DHT22;43322;52.230;5.702;2022-11-20T11:20:24;1.10;99.90
23719;DHT22;43322;52.230;5.702;2022-11-20T11:22:53;1.10;99.90
23719;DHT22;43322;52.230;5.702;2022-11-20T11:25:32;1.00;99.90
23719;DHT22;43322;52.230;5.702;2022-11-20T11:28:01;0.90;99.90
23719;DHT22;43322;52.230;5.702;2022-11-20T11:30:39;0.90;99.90
23719;DHT22;43322;52.230;5.702;2022-11-20T11:33:10;0.80;99.90
23719;DHT22;43322;52.230;5.702;2022-11-20T11:35:45;0.90;99.90
23719;DHT22;43322;52.230;5.702;2022-11-20T11:38:15;1.00;99.90
23719;DHT22;43322;52.230;5.702;2022-11-20T11:40:46;1.20;99.90
23719;DHT22;43322;52.230;5.702;2022-11-20T11:43:19;1.40;99.90
23719;DHT22;43322;52.230;5.702;2022-11-20T11:46:25;1.40;99.90
23719;DHT22;43322;52.230;5.702;2022-11-20T11:49:00;1.30;99.90
23719;DHT22;43322;52.230;5.702;2022-11-20T11:51:33;1.30;99.90
23719;DHT22;43322;52.230;5.702;2022-11-20T11:54:05;1.80;99.90
23719;DHT22;43322;52.230;5.702;2022-11-20T11:56:37;1.20;99.90
23719;DHT22;43322;52.230;5.702;2022-11-20T11:59:11;1.20;99.90
23719;DHT22;43322;52.230;5.702;2022-11-20T12:01:44;1.10;99.90
23719;DHT22;43322;52.230;5.702;2022-11-20T12:04:19;1.10;99.90
23719;DHT22;43322;52.230;5.702;2022-11-20T12:06:51;1.10;99.90
23719;DHT22;43322;52.230;5.702;2022-11-20T12:09:24;1.10;99.90
23719;DHT22;43322;52.230;5.702;2022-11-20T12:11:56;1.00;99.90
23719;DHT22;43322;52.230;5.702;2022-11-20T12:14:32;1.00;99.90
23719;DHT22;43322;52.230;5.702;2022-11-20T12:17:01;1.00;99.90
23719;DHT22;43322;52.230;5.702;2022-11-20T12:19:30;1.10;99.90
23719;DHT22;43322;52.230;5.702;2022-11-20T12:22:05;1.10;99.90
23719;DHT22;43322;52.230;5.702;2022-11-20T12:24:44;1.00;99.90
23719;DHT22;43322;52.230;5.702;2022-11-20T12:27:34;1.00;99.90
23719;DHT22;43322;52.230;5.702;2022-11-20T12:30:08;1.00;99.90
23719;DHT22;43322;52.230;5.702;2022-11-20T12:35:48;1.10;99.90
23719;DHT22;43322;52.230;5.702;2022-11-20T12:41:25;1.10;99.90
23719;DHT22;43322;52.230;5.702;2022-11-20T12:44:22;1.10;99.90
23719;DHT22;43322;52.230;5.702;2022-11-20T12:47:14;1.20;99.90
23719;DHT22;43322;52.230;5.702;2022-11-20T12:49:48;1.30;99.90
23719;DHT22;43322;52.230;5.702;2022-11-20T12:52:33;1.30;99.90
23719;DHT22;43322;52.230;5.702;2022-11-20T12:55:16;1.40;99.90
23719;DHT22;43322;52.230;5.702;2022-11-20T12:57:48;1.40;99.90
23719;DHT22;43322;52.230;5.702;2022-11-20T13:00:20;1.40;99.90
23719;DHT22;43322;52.230;5.702;2022-11-20T13:03:06;1.50;99.90
23719;DHT22;43322;52.230;5.702;2022-11-20T13:05:44;1.50;99.90
23719;DHT22;43322;52.230;5.702;2022-11-20T13:08:19;2.30;99.90
23719;DHT22;43322;52.230;5.702;2022-11-20T13:10:50;1.60;99.90
23719;DHT22;43322;52.230;5.702;2022-11-20T13:13:24;1.60;99.90
23719;DHT22;43322;52.230;5.702;2022-11-20T13:15:57;1.60;99.90
23719;DHT22;43322;52.230;5.702;2022-11-20T13:18:25;1.60;99.90
23719;DHT22;43322;52.230;5.702;2022-11-20T13:20:52;1.70;99.90
23719;DHT22;43322;52.230;5.702;2022-11-20T13:23:26;1.70;99.90
23719;DHT22;43322;52.230;5.702;2022-11-20T13:26:04;1.80;99.90
23719;DHT22;43322;52.230;5.702;2022-11-20T13:28:32;1.80;99.90
23719;DHT22;43322;52.230;5.702;2022-11-20T13:31:00;2.50;99.90
23719;DHT22;43322;52.230;5.702;2022-11-20T13:33:30;1.70;99.90
23719;DHT22;43322;52.230;5.702;2022-11-20T13:35:59;1.70;99.90
23719;DHT22;43322;52.230;5.702;2022-11-20T13:38:27;1.80;99.90
23719;DHT22;43322;52.230;5.702;2022-11-20T13:40:55;1.70;99.90
23719;DHT22;43322;52.230;5.702;2022-11-20T13:43:28;1.70;99.90
23719;DHT22;43322;52.230;5.702;2022-11-20T13:46:01;1.70;99.90
23719;DHT22;43322;52.230;5.702;2022-11-20T13:48:31;1.70;99.90
23719;DHT22;43322;52.230;5.702;2022-11-20T13:51:11;1.70;99.90
23719;DHT22;43322;52.230;5.702;2022-11-20T13:56:54;1.70;99.90
23719;DHT22;43322;52.230;5.702;2022-11-20T13:59:40;1.70;99.90
23719;DHT22;43322;52.230;5.702;2022-11-20T14:02:13;1.70;99.90
23719;DHT22;43322;52.230;5.702;2022-11-20T14:04:43;1.70;99.90
23719;DHT22;43322;52.230;5.702;2022-11-20T14:07:11;1.70;99.90
23719;DHT22;43322;52.230;5.702;2022-11-20T14:09:38;1.70;99.90
23719;DHT22;43322;52.230;5.702;2022-11-20T14:12:19;1.70;99.90
23719;DHT22;43322;52.230;5.702;2022-11-20T14:14:51;1.70;99.90
23719;DHT22;43322;52.230;5.702;2022-11-20T14:17:21;1.80;99.90
23719;DHT22;43322;52.230;5.702;2022-11-20T14:19:50;1.80;99.90
23719;DHT22;43322;52.230;5.702;2022-11-20T14:22:20;1.70;99.90
23719;DHT22;43322;52.230;5.702;2022-11-20T14:24:49;1.70;99.90
23719;DHT22;43322;52.230;5.702;2022-11-20T14:27:18;1.60;99.90
23719;DHT22;43322;52.230;5.702;2022-11-20T14:29:48;1.70;99.90
23719;DHT22;43322;52.230;5.702;2022-11-20T14:32:17;1.70;99.90
23719;DHT22;43322;52.230;5.702;2022-11-20T14:34:49;1.70;99.90
23719;DHT22;43322;52.230;5.702;2022-11-20T14:37:20;1.70;99.90
23719;DHT22;43322;52.230;5.702;2022-11-20T14:39:50;1.80;99.90
23719;DHT22;43322;52.230;5.702;2022-11-20T14:42:21;1.70;99.90
23719;DHT22;43322;52.230;5.702;2022-11-20T14:44:49;1.70;99.90
23719;DHT22;43322;52.230;5.702;2022-11-20T14:47:19;1.70;99.90
23719;DHT22;43322;52.230;5.702;2022-11-20T14:49:49;1.70;99.90
23719;DHT22;43322;52.230;5.702;2022-11-20T14:52:18;1.70;99.90
23719;DHT22;43322;52.230;5.702;2022-11-20T14:54:46;1.70;99.90
23719;DHT22;43322;52.230;5.702;2022-11-20T14:57:24;1.70;99.90
23719;DHT22;43322;52.230;5.702;2022-11-20T15:00:02;1.70;99.90
23719;DHT22;43322;52.230;5.702;2022-11-20T15:02:30;1.60;99.90
23719;DHT22;43322;52.230;5.702;2022-11-20T15:04:59;1.60;99.90
23719;DHT22;43322;52.230;5.702;2022-11-20T15:07:30;1.60;99.90
23719;DHT22;43322;52.230;5.702;2022-11-20T15:10:02;1.70;99.90
23719;DHT22;43322;52.230;5.702;2022-11-20T15:12:30;1.60;99.90
23719;DHT22;43322;52.230;5.702;2022-11-20T15:14:57;1.60;99.90
23719;DHT22;43322;52.230;5.702;2022-11-20T15:17:24;1.60;99.90
23719;DHT22;43322;52.230;5.702;2022-11-20T15:19:52;1.60;99.90
23719;DHT22;43322;52.230;5.702;2022-11-20T15:22:20;1.60;99.90
23719;DHT22;43322;52.230;5.702;2022-11-20T15:24:47;1.60;99.90
23719;DHT22;43322;52.230;5.702;2022-11-20T15:27:13;1.60;99.90
23719;DHT22;43322;52.230;5.702;2022-11-20T15:29:41;1.60;99.90
23719;DHT22;43322;52.230;5.702;2022-11-20T15:32:08;1.60;99.90
23719;DHT22;43322;52.230;5.702;2022-11-20T15:34:35;1.50;99.90
23719;DHT22;43322;52.230;5.702;2022-11-20T15:37:02;1.50;99.90
23719;DHT22;43322;52.230;5.702;2022-11-20T15:39:30;1.50;99.90
23719;DHT22;43322;52.230;5.702;2022-11-20T15:41:57;1.50;99.90
23719;DHT22;43322;52.230;5.702;2022-11-20T15:44:23;1.50;99.90
23719;DHT22;43322;52.230;5.702;2022-11-20T15:46:50;1.80;99.90
23719;DHT22;43322;52.230;5.702;2022-11-20T15:49:17;1.60;99.90
23719;DHT22;43322;52.230;5.702;2022-11-20T15:51:48;1.60;99.90
23719;DHT22;43322;52.230;5.702;2022-11-20T15:54:16;1.60;99.90
23719;DHT22;43322;52.230;5.702;2022-11-20T15:56:46;1.60;99.90
23719;DHT22;43322;52.230;5.702;2022-11-20T15:59:13;1.60;99.90
23719;DHT22;43322;52.230;5.702;2022-11-20T16:01:41;1.60;99.90
23719;DHT22;43322;52.230;5.702;2022-11-20T16:04:10;1.60;99.90
23719;DHT22;43322;52.230;5.702;2022-11-20T16:06:37;1.60;99.90